Time;durP1;ratioP1;P1;durP2;ratioP2;P2;SDS_P1;SDS_P2;PMS_P1;PMS_P2;Temp;Humidity;BMP_temperature;BMP_pressure;BME280_temperature;BME280_humidity;BME280_pressure;Samples;Min_cycle;Max_cycle;Signal;HPM_P1;HPM_P2
2022/10/21 00:00:08;;;;;;;;;;;20.30;67.50;;;;;;5059658;28;894;-68
2022/10/21 00:02:34;;;;;;;;;;;20.30;66.80;;;;;;5059047;28;1026;-68
2022/10/21 00:04:59;;;;;;;;;;;20.30;66.80;;;;;;5058493;28;1926;-68
2022/10/21 00:07:24;;;;;;;;;;;20.30;66.80;;;;;;5055880;28;1388;-69
2022/10/21 00:09:50;;;;;;;;;;;20.30;66.80;;;;;;5058820;28;855;-68
2022/10/21 00:12:15;;;;;;;;;;;20.30;66.80;;;;;;5055785;28;861;-68
2022/10/21 00:14:41;;;;;;;;;;;20.30;66.80;;;;;;5055974;28;1050;-68
2022/10/21 00:17:06;;;;;;;;;;;20.30;66.90;;;;;;5054548;28;1303;-68
2022/10/21 00:19:32;;;;;;;;;;;20.30;66.90;;;;;;5057940;28;907;-69
2022/10/21 00:21:57;;;;;;;;;;;20.30;66.90;;;;;;5063575;28;1385;-69
2022/10/21 00:24:22;;;;;;;;;;;20.30;66.90;;;;;;5060310;28;1037;-69
2022/10/21 00:26:48;;;;;;;;;;;20.30;66.90;;;;;;5058721;28;1893;-70
2022/10/21 00:29:14;;;;;;;;;;;20.30;66.90;;;;;;5059588;28;989;-70
2022/10/21 00:31:39;;;;;;;;;;;20.20;66.90;;;;;;5063741;28;1399;-69
2022/10/21 00:34:04;;;;;;;;;;;20.30;67.00;;;;;;5058366;28;939;-69
2022/10/21 00:36:30;;;;;;;;;;;20.30;66.90;;;;;;5068142;28;1273;-68
2022/10/21 00:38:56;;;;;;;;;;;20.30;67.00;;;;;;5061318;28;808;-69
2022/10/21 00:41:21;;;;;;;;;;;20.30;66.90;;;;;;5063633;28;926;-69
2022/10/21 00:43:53;;;;;;;;;;;20.30;67.00;;;;;;5062178;28;832;-70
2022/10/21 00:46:18;;;;;;;;;;;20.30;67.00;;;;;;5062255;28;1914;-70
2022/10/21 00:48:44;;;;;;;;;;;20.30;67.00;;;;;;5061807;28;903;-70
2022/10/21 00:51:10;;;;;;;;;;;20.30;67.00;;;;;;5060240;28;871;-68
2022/10/21 00:53:36;;;;;;;;;;;20.20;67.10;;;;;;5057529;28;902;-68
2022/10/21 00:56:03;;;;;;;;;;;20.30;67.00;;;;;;5057189;28;1253;-68
2022/10/21 00:58:29;;;;;;;;;;;20.30;67.10;;;;;;5060416;28;839;-68
2022/10/21 01:00:55;;;;;;;;;;;20.30;67.00;;;;;;5058940;28;875;-68
2022/10/21 01:03:21;;;;;;;;;;;20.30;67.10;;;;;;5060075;28;1030;-68
2022/10/21 01:05:46;;;;;;;;;;;20.30;67.10;;;;;;5060897;28;1907;-68
2022/10/21 01:08:12;;;;;;;;;;;20.30;67.10;;;;;;5060743;28;827;-69
2022/10/21 01:10:37;;;;;;;;;;;20.30;67.20;;;;;;5059634;28;871;-68
2022/10/21 01:13:13;;;;;;;;;;;20.30;67.10;;;;;;5061530;28;927;-69
2022/10/21 01:15:59;;;;;;;;;;;20.30;67.10;;;;;;5056041;28;1252;-69
2022/10/21 01:18:34;;;;;;;;;;;20.30;67.20;;;;;;5060046;28;1351;-69
2022/10/21 01:21:14;;;;;;;;;;;20.30;67.20;;;;;;5063142;28;858;-69
2022/10/21 01:23:45;;;;;;;;;;;20.30;67.20;;;;;;5057232;28;898;-70
2022/10/21 01:26:18;;;;;;;;;;;20.30;67.10;;;;;;5059221;28;1961;-71
2022/10/21 01:28:54;;;;;;;;;;;20.30;67.20;;;;;;5063407;28;1619;-71
2022/10/21 01:31:20;;;;;;;;;;;20.30;67.20;;;;;;5061351;28;1365;-70
2022/10/21 01:34:04;;;;;;;;;;;20.30;67.20;;;;;;5058117;28;1382;-71
2022/10/21 01:36:48;;;;;;;;;;;20.30;67.20;;;;;;5060839;28;1268;-69
2022/10/21 01:39:34;;;;;;;;;;;20.30;67.20;;;;;;5061171;28;895;-70
2022/10/21 01:42:10;;;;;;;;;;;20.30;67.30;;;;;;5066157;28;858;-70
2022/10/21 01:44:39;;;;;;;;;;;20.30;67.30;;;;;;5067066;28;867;-70
2022/10/21 01:47:24;;;;;;;;;;;20.30;67.20;;;;;;5072311;28;1905;-69
2022/10/21 01:49:50;;;;;;;;;;;20.30;67.30;;;;;;5054122;28;1675;-70
2022/10/21 01:52:15;;;;;;;;;;;20.30;67.30;;;;;;5060608;28;868;-70
2022/10/21 01:54:42;;;;;;;;;;;20.30;67.20;;;;;;5063664;28;927;-69
2022/10/21 01:57:08;;;;;;;;;;;20.30;67.30;;;;;;5061523;28;1363;-69
2022/10/21 01:59:33;;;;;;;;;;;20.20;67.30;;;;;;5062352;28;911;-68
2022/10/21 02:01:59;;;;;;;;;;;20.30;67.30;;;;;;5060987;28;954;-70
2022/10/21 02:04:24;;;;;;;;;;;20.30;67.30;;;;;;5058461;28;1368;-70
2022/10/21 02:06:50;;;;;;;;;;;20.30;67.40;;;;;;5060008;28;1914;-69
2022/10/21 02:09:15;;;;;;;;;;;20.30;67.40;;;;;;5062316;28;1746;-71
2022/10/21 02:11:40;;;;;;;;;;;20.20;67.30;;;;;;5063212;28;1331;-70
2022/10/21 02:14:17;;;;;;;;;;;20.30;67.40;;;;;;5061225;28;1096;-70
2022/10/21 02:16:42;;;;;;;;;;;20.30;67.40;;;;;;5063592;28;1276;-70
2022/10/21 02:19:14;;;;;;;;;;;20.30;67.40;;;;;;5063130;28;1444;-71
2022/10/21 02:21:40;;;;;;;;;;;20.30;67.40;;;;;;5063597;28;1386;-69
2022/10/21 02:24:11;;;;;;;;;;;20.30;67.40;;;;;;5062734;28;1344;-70
2022/10/21 02:26:37;;;;;;;;;;;20.30;67.40;;;;;;5063835;28;1910;-70
2022/10/21 02:29:02;;;;;;;;;;;20.30;67.50;;;;;;5065971;28;1370;-71
2022/10/21 02:32:06;;;;;;;;;;;20.20;67.40;;;;;;5061830;28;1619;-71
2022/10/21 02:34:50;;;;;;;;;;;20.30;67.40;;;;;;5009422;28;1624;-71
2022/10/21 02:37:32;;;;;;;;;;;20.30;67.60;;;;;;5008163;28;1412;-72
2022/10/21 02:40:03;;;;;;;;;;;20.30;67.50;;;;;;5044439;28;1375;-69
2022/10/21 02:42:30;;;;;;;;;;;20.30;67.40;;;;;;5062785;28;1535;-69
2022/10/21 02:44:56;;;;;;;;;;;20.30;67.40;;;;;;5061839;28;1388;-70
2022/10/21 02:47:22;;;;;;;;;;;20.30;67.40;;;;;;5062199;28;1957;-69
2022/10/21 02:49:47;;;;;;;;;;;20.30;67.40;;;;;;5062719;28;1096;-70
2022/10/21 02:52:13;;;;;;;;;;;20.30;67.50;;;;;;5061595;28;920;-70
2022/10/21 02:54:38;;;;;;;;;;;20.30;67.50;;;;;;5064662;28;1006;-70
2022/10/21 02:57:04;;;;;;;;;;;20.30;67.50;;;;;;5061176;28;1256;-70
2022/10/21 02:59:29;;;;;;;;;;;20.30;67.50;;;;;;5059402;28;831;-70
2022/10/21 03:01:55;;;;;;;;;;;20.30;67.50;;;;;;5061084;28;793;-70
2022/10/21 03:04:20;;;;;;;;;;;20.30;67.50;;;;;;5059544;28;875;-70
2022/10/21 03:06:45;;;;;;;;;;;20.30;67.50;;;;;;5059616;28;1902;-70
2022/10/21 03:09:11;;;;;;;;;;;20.30;67.60;;;;;;5059800;28;958;-70
2022/10/21 03:11:36;;;;;;;;;;;20.30;67.50;;;;;;5061511;28;942;-70
2022/10/21 03:14:02;;;;;;;;;;;20.30;67.50;;;;;;5060889;28;927;-70
2022/10/21 03:16:27;;;;;;;;;;;20.30;67.60;;;;;;5067608;28;1330;-70
2022/10/21 03:18:53;;;;;;;;;;;20.30;67.60;;;;;;5071007;28;1337;-70
2022/10/21 03:21:18;;;;;;;;;;;20.30;67.60;;;;;;5061791;28;821;-70
2022/10/21 03:23:43;;;;;;;;;;;20.30;67.60;;;;;;5061431;28;811;-70
2022/10/21 03:26:09;;;;;;;;;;;20.30;67.60;;;;;;5061382;28;1894;-69
2022/10/21 03:28:34;;;;;;;;;;;20.30;67.60;;;;;;5064384;28;1097;-69
2022/10/21 03:31:00;;;;;;;;;;;20.30;67.60;;;;;;5067793;28;887;-69
2022/10/21 03:33:25;;;;;;;;;;;20.30;67.60;;;;;;5063872;28;1172;-69
2022/10/21 03:35:51;;;;;;;;;;;20.30;67.60;;;;;;5058266;28;1311;-68
2022/10/21 03:38:16;;;;;;;;;;;20.30;67.70;;;;;;5059806;28;1403;-70
2022/10/21 03:40:41;;;;;;;;;;;20.30;67.70;;;;;;5060592;28;848;-70
2022/10/21 03:43:07;;;;;;;;;;;20.30;67.70;;;;;;5059785;28;862;-69
2022/10/21 03:45:32;;;;;;;;;;;20.30;67.70;;;;;;5059632;28;1973;-69
2022/10/21 03:47:58;;;;;;;;;;;20.30;67.70;;;;;;5055472;28;1297;-69
2022/10/21 03:50:23;;;;;;;;;;;20.30;67.70;;;;;;5058540;28;948;-70
2022/10/21 03:52:49;;;;;;;;;;;20.30;67.80;;;;;;5057491;28;951;-70
2022/10/21 03:55:16;;;;;;;;;;;20.30;67.80;;;;;;5055883;28;899;-69
2022/10/21 03:57:41;;;;;;;;;;;20.30;67.70;;;;;;5059159;28;1272;-68
2022/10/21 04:00:07;;;;;;;;;;;20.30;67.70;;;;;;5057123;28;1061;-68
2022/10/21 04:02:32;;;;;;;;;;;20.30;67.80;;;;;;5054162;28;969;-69
2022/10/21 04:04:58;;;;;;;;;;;20.30;67.80;;;;;;5058293;28;938;-68
2022/10/21 04:07:23;;;;;;;;;;;20.30;67.80;;;;;;5057352;28;1910;-68
2022/10/21 04:09:48;;;;;;;;;;;20.30;67.80;;;;;;5058194;28;930;-68
2022/10/21 04:12:14;;;;;;;;;;;20.20;67.70;;;;;;5056357;28;1080;-68
2022/10/21 04:14:39;;;;;;;;;;;20.30;67.70;;;;;;5062014;28;1270;-68
2022/10/21 04:17:05;;;;;;;;;;;20.30;67.70;;;;;;5059984;28;1371;-69
2022/10/21 04:19:30;;;;;;;;;;;20.30;67.70;;;;;;5058599;28;1204;-68
2022/10/21 04:21:56;;;;;;;;;;;20.30;67.70;;;;;;5058308;28;823;-68
2022/10/21 04:24:21;;;;;;;;;;;20.30;67.60;;;;;;5057735;28;884;-68
2022/10/21 04:26:46;;;;;;;;;;;20.30;67.60;;;;;;5059447;28;1906;-68
2022/10/21 04:29:12;;;;;;;;;;;20.40;67.60;;;;;;5057371;28;883;-68
2022/10/21 04:31:37;;;;;;;;;;;20.40;67.60;;;;;;5061220;28;982;-68
2022/10/21 04:34:03;;;;;;;;;;;20.40;67.40;;;;;;5055454;28;938;-68
2022/10/21 04:36:28;;;;;;;;;;;20.50;67.30;;;;;;5055324;28;1325;-69
2022/10/21 04:38:54;;;;;;;;;;;20.50;67.30;;;;;;5056979;28;839;-68
2022/10/21 04:41:19;;;;;;;;;;;20.50;67.10;;;;;;5058593;28;1517;-68
2022/10/21 04:43:45;;;;;;;;;;;20.50;67.20;;;;;;5055903;28;967;-68
2022/10/21 04:46:12;;;;;;;;;;;20.50;67.10;;;;;;5060360;28;1905;-68
2022/10/21 04:48:38;;;;;;;;;;;20.60;67.00;;;;;;5056872;28;915;-70
2022/10/21 04:51:04;;;;;;;;;;;20.50;66.90;;;;;;5059007;28;879;-69
2022/10/21 04:53:29;;;;;;;;;;;20.60;67.00;;;;;;5056494;28;1568;-68
2022/10/21 04:55:54;;;;;;;;;;;20.60;66.90;;;;;;5057307;28;1272;-68
2022/10/21 04:58:20;;;;;;;;;;;20.60;66.90;;;;;;5058771;28;859;-68
2022/10/21 05:00:46;;;;;;;;;;;20.60;66.90;;;;;;5058938;28;949;-68
2022/10/21 05:03:11;;;;;;;;;;;20.60;66.80;;;;;;5055768;28;818;-71
2022/10/21 05:05:36;;;;;;;;;;;20.60;66.80;;;;;;5057210;28;2017;-69
2022/10/21 05:08:02;;;;;;;;;;;20.60;66.80;;;;;;5052911;28;4098;-69
2022/10/21 05:10:29;;;;;;;;;;;20.70;66.80;;;;;;5060515;28;3798;-71
2022/10/21 05:12:57;;;;;;;;;;;20.60;66.80;;;;;;5062972;28;1899;-69
2022/10/21 05:15:23;;;;;;;;;;;20.60;66.70;;;;;;5063541;28;1359;-70
2022/10/21 05:17:48;;;;;;;;;;;20.70;66.80;;;;;;5062662;28;1360;-71
2022/10/21 05:20:14;;;;;;;;;;;20.60;66.70;;;;;;5057289;28;1026;-71
2022/10/21 05:22:39;;;;;;;;;;;20.60;66.60;;;;;;5062263;28;926;-72
2022/10/21 05:25:05;;;;;;;;;;;20.70;66.70;;;;;;5061011;28;968;-69
2022/10/21 05:27:30;;;;;;;;;;;20.70;66.70;;;;;;5058880;28;1976;-69
2022/10/21 05:29:57;;;;;;;;;;;20.70;66.70;;;;;;5061204;28;1022;-71
2022/10/21 05:32:22;;;;;;;;;;;20.70;66.70;;;;;;5063720;28;1645;-69
2022/10/21 05:34:48;;;;;;;;;;;20.70;66.70;;;;;;5058047;28;796;-71
2022/10/21 05:37:13;;;;;;;;;;;20.70;66.70;;;;;;5057361;28;1368;-68
2022/10/21 05:39:39;;;;;;;;;;;20.70;66.70;;;;;;5059843;28;860;-68
2022/10/21 05:42:04;;;;;;;;;;;20.70;66.80;;;;;;5059022;28;829;-70
2022/10/21 05:44:30;;;;;;;;;;;20.70;66.70;;;;;;5050198;28;1640;-69
2022/10/21 05:46:55;;;;;;;;;;;20.70;66.70;;;;;;5056436;28;1914;-70
2022/10/21 05:49:20;;;;;;;;;;;20.70;66.60;;;;;;5057370;28;863;-71
2022/10/21 05:51:46;;;;;;;;;;;20.70;66.60;;;;;;5055330;28;845;-70
2022/10/21 05:54:11;;;;;;;;;;;20.70;66.60;;;;;;5058746;28;867;-70
2022/10/21 05:56:37;;;;;;;;;;;20.70;66.60;;;;;;5059629;28;1272;-70
2022/10/21 05:59:02;;;;;;;;;;;20.70;66.60;;;;;;5059221;28;827;-71
2022/10/21 06:01:28;;;;;;;;;;;20.70;66.70;;;;;;5062182;28;830;-70
2022/10/21 06:03:53;;;;;;;;;;;20.70;66.70;;;;;;5070451;28;902;-70
2022/10/21 06:06:18;;;;;;;;;;;20.70;66.70;;;;;;5057526;28;2114;-69
2022/10/21 06:08:44;;;;;;;;;;;20.70;66.70;;;;;;5060259;28;1237;-71
2022/10/21 06:11:10;;;;;;;;;;;20.70;66.70;;;;;;5059303;28;1018;-70
2022/10/21 06:13:36;;;;;;;;;;;20.70;66.80;;;;;;5060174;28;1093;-71
2022/10/21 06:16:01;;;;;;;;;;;20.70;66.80;;;;;;5060480;28;1275;-70
2022/10/21 06:18:27;;;;;;;;;;;20.70;66.80;;;;;;5060434;28;1391;-70
2022/10/21 06:20:52;;;;;;;;;;;20.70;66.80;;;;;;5056879;28;957;-71
2022/10/21 06:23:17;;;;;;;;;;;20.70;66.80;;;;;;5058956;28;1009;-69
2022/10/21 06:25:43;;;;;;;;;;;20.70;66.80;;;;;;5054836;28;1963;-70
2022/10/21 06:28:08;;;;;;;;;;;20.70;66.90;;;;;;5057517;28;1534;-70
2022/10/21 06:30:34;;;;;;;;;;;20.70;67.00;;;;;;5058468;28;850;-70
2022/10/21 06:32:59;;;;;;;;;;;20.70;66.90;;;;;;5058540;28;1436;-69
2022/10/21 06:35:25;;;;;;;;;;;20.70;66.90;;;;;;5056495;28;953;-70
2022/10/21 06:37:50;;;;;;;;;;;20.60;66.90;;;;;;5057102;28;1353;-70
2022/10/21 06:40:16;;;;;;;;;;;20.60;66.90;;;;;;5062925;28;903;-69
2022/10/21 06:42:41;;;;;;;;;;;20.60;66.90;;;;;;5061391;28;1061;-69
2022/10/21 06:45:07;;;;;;;;;;;20.60;66.90;;;;;;5058410;28;813;-69
2022/10/21 06:47:32;;;;;;;;;;;20.60;66.90;;;;;;5059256;28;1906;-69
2022/10/21 06:50:01;;;;;;;;;;;20.60;67.00;;;;;;5059730;28;1325;-71
2022/10/21 06:52:28;;;;;;;;;;;20.60;67.00;;;;;;5062139;28;857;-70
2022/10/21 06:54:53;;;;;;;;;;;20.60;67.00;;;;;;5053997;28;889;-70
2022/10/21 06:57:19;;;;;;;;;;;20.60;67.00;;;;;;5053982;28;1252;-70
2022/10/21 06:59:45;;;;;;;;;;;20.60;67.00;;;;;;5056610;28;876;-70
2022/10/21 07:02:11;;;;;;;;;;;20.60;67.00;;;;;;5055444;28;2161;-70
2022/10/21 07:04:36;;;;;;;;;;;20.60;67.00;;;;;;5058391;28;1470;-70
2022/10/21 07:07:01;;;;;;;;;;;20.60;67.10;;;;;;5057920;28;1922;-69
2022/10/21 07:09:27;;;;;;;;;;;20.60;67.10;;;;;;5056178;28;1467;-71
2022/10/21 07:11:52;;;;;;;;;;;20.60;67.10;;;;;;5066691;28;1402;-71
2022/10/21 07:14:18;;;;;;;;;;;20.60;67.10;;;;;;5056172;28;908;-69
2022/10/21 07:16:43;;;;;;;;;;;20.60;67.20;;;;;;5057077;28;1293;-71
2022/10/21 07:19:09;;;;;;;;;;;20.60;67.20;;;;;;5059520;28;1245;-70
2022/10/21 07:21:34;;;;;;;;;;;20.60;67.20;;;;;;5060798;28;845;-70
2022/10/21 07:24:00;;;;;;;;;;;20.60;67.20;;;;;;5065094;28;845;-70
2022/10/21 07:26:26;;;;;;;;;;;20.60;67.30;;;;;;5058804;28;1968;-70
2022/10/21 07:28:52;;;;;;;;;;;20.60;67.30;;;;;;5059689;28;871;-71
2022/10/21 07:31:19;;;;;;;;;;;20.60;67.30;;;;;;5060161;28;1346;-71
2022/10/21 07:33:44;;;;;;;;;;;20.60;67.30;;;;;;5056055;28;1061;-71
2022/10/21 07:36:17;;;;;;;;;;;20.60;67.30;;;;;;5055515;28;1221;-70
2022/10/21 07:38:45;;;;;;;;;;;20.60;67.40;;;;;;5059714;28;882;-69
2022/10/21 07:41:17;;;;;;;;;;;20.60;67.40;;;;;;5056539;28;843;-70
2022/10/21 07:43:43;;;;;;;;;;;20.60;67.40;;;;;;5057310;28;939;-68
2022/10/21 07:46:08;;;;;;;;;;;20.50;67.40;;;;;;5055304;28;1934;-69
2022/10/21 07:48:34;;;;;;;;;;;20.60;67.50;;;;;;5059273;28;1002;-70
2022/10/21 07:51:07;;;;;;;;;;;20.60;67.50;;;;;;5054970;28;816;-69
2022/10/21 07:53:33;;;;;;;;;;;20.50;67.50;;;;;;5058892;28;914;-70
2022/10/21 07:56:03;;;;;;;;;;;20.50;67.40;;;;;;5055137;28;1252;-70
2022/10/21 07:58:29;;;;;;;;;;;20.50;67.50;;;;;;5060146;28;839;-70
2022/10/21 08:00:56;;;;;;;;;;;20.60;67.60;;;;;;5059411;28;1025;-70
2022/10/21 08:03:22;;;;;;;;;;;20.50;67.50;;;;;;5054164;28;1375;-70
2022/10/21 08:05:47;;;;;;;;;;;20.50;67.50;;;;;;5057657;28;1985;-70
2022/10/21 08:08:12;;;;;;;;;;;20.60;68.30;;;;;;5053215;28;1167;-70
2022/10/21 08:10:38;;;;;;;;;;;20.50;67.50;;;;;;5057469;28;858;-70
2022/10/21 08:13:04;;;;;;;;;;;20.60;67.60;;;;;;5057447;28;1254;-70
2022/10/21 08:15:29;;;;;;;;;;;20.50;67.50;;;;;;5055653;28;1022;-71
2022/10/21 08:17:55;;;;;;;;;;;20.50;67.60;;;;;;5057977;28;1287;-70
2022/10/21 08:20:21;;;;;;;;;;;20.50;67.50;;;;;;5055235;28;819;-70
2022/10/21 08:22:47;;;;;;;;;;;20.50;67.60;;;;;;5057085;28;955;-69
2022/10/21 08:25:15;;;;;;;;;;;20.60;67.60;;;;;;5057796;28;1025;-70
2022/10/21 08:27:41;;;;;;;;;;;20.50;67.60;;;;;;5056058;28;1930;-69
2022/10/21 08:30:06;;;;;;;;;;;20.50;67.50;;;;;;5057918;28;875;-71
2022/10/21 08:32:32;;;;;;;;;;;20.50;67.60;;;;;;5057719;28;1478;-70
2022/10/21 08:34:57;;;;;;;;;;;20.50;67.60;;;;;;5057595;28;1006;-70
2022/10/21 08:37:23;;;;;;;;;;;20.50;67.60;;;;;;5056335;28;1592;-70
2022/10/21 08:39:48;;;;;;;;;;;20.50;67.70;;;;;;5058466;28;848;-71
2022/10/21 08:42:14;;;;;;;;;;;20.50;67.70;;;;;;5053294;28;890;-70
2022/10/21 08:44:42;;;;;;;;;;;20.50;67.70;;;;;;5059118;28;812;-70
2022/10/21 08:47:14;;;;;;;;;;;20.50;67.70;;;;;;5060169;28;2013;-70
2022/10/21 08:49:50;;;;;;;;;;;20.50;67.70;;;;;;5060472;28;898;-71
2022/10/21 08:52:17;;;;;;;;;;;20.50;67.70;;;;;;5061268;28;869;-71
2022/10/21 08:54:47;;;;;;;;;;;20.50;67.70;;;;;;5061168;28;886;-70
2022/10/21 08:57:13;;;;;;;;;;;20.50;67.80;;;;;;5060690;28;1272;-70
2022/10/21 08:59:40;;;;;;;;;;;20.50;67.70;;;;;;5061588;28;1077;-70
2022/10/21 09:02:25;;;;;;;;;;;20.50;67.80;;;;;;5061287;28;887;-69
2022/10/21 09:04:53;;;;;;;;;;;20.50;67.80;;;;;;5063609;28;864;-70
2022/10/21 09:07:25;;;;;;;;;;;20.50;67.90;;;;;;5062791;28;1894;-69
2022/10/21 09:10:08;;;;;;;;;;;20.50;67.90;;;;;;5060717;28;1014;-70
2022/10/21 09:12:49;;;;;;;;;;;20.50;67.80;;;;;;5063193;28;1136;-70
2022/10/21 09:15:24;;;;;;;;;;;20.50;68.00;;;;;;5059775;28;1059;-70
2022/10/21 09:18:00;;;;;;;;;;;20.50;67.90;;;;;;5060988;28;1423;-71
2022/10/21 09:20:28;;;;;;;;;;;20.50;67.90;;;;;;5062285;28;805;-71
2022/10/21 09:22:57;;;;;;;;;;;20.50;68.00;;;;;;5058324;28;869;-72
2022/10/21 09:25:27;;;;;;;;;;;20.50;68.00;;;;;;5059036;28;1961;-72
2022/10/21 09:27:52;;;;;;;;;;;20.50;68.10;;;;;;5059237;28;1272;-71
2022/10/21 09:30:20;;;;;;;;;;;20.50;68.10;;;;;;5069915;28;1124;-70
2022/10/21 09:32:48;;;;;;;;;;;20.50;68.10;;;;;;5063824;28;1040;-72
2022/10/21 09:35:16;;;;;;;;;;;20.50;68.10;;;;;;5061717;28;898;-71
2022/10/21 09:37:44;;;;;;;;;;;20.50;68.10;;;;;;5057187;28;1500;-72
2022/10/21 09:40:20;;;;;;;;;;;20.50;68.20;;;;;;5070413;28;1361;-70
2022/10/21 09:42:47;;;;;;;;;;;20.50;68.20;;;;;;5062402;28;857;-71
2022/10/21 09:45:34;;;;;;;;;;;20.50;68.20;;;;;;5067592;28;1160;-71
2022/10/21 09:48:00;;;;;;;;;;;20.40;68.20;;;;;;5061756;28;1294;-71
2022/10/21 09:50:26;;;;;;;;;;;20.50;68.30;;;;;;5057702;28;852;-70
2022/10/21 09:52:54;;;;;;;;;;;20.50;68.20;;;;;;5059856;28;969;-70
2022/10/21 09:55:19;;;;;;;;;;;20.50;68.20;;;;;;5058980;28;1380;-71
2022/10/21 09:57:55;;;;;;;;;;;20.50;68.30;;;;;;5056740;28;1347;-71
2022/10/21 10:00:20;;;;;;;;;;;20.50;68.30;;;;;;5062421;28;1014;-70
2022/10/21 10:02:46;;;;;;;;;;;20.50;68.40;;;;;;5058693;28;1014;-71
2022/10/21 10:05:30;;;;;;;;;;;20.40;68.30;;;;;;5057892;28;782;-71
2022/10/21 10:07:55;;;;;;;;;;;20.50;68.30;;;;;;5056772;28;1298;-71
2022/10/21 10:10:28;;;;;;;;;;;20.50;68.30;;;;;;5058585;28;812;-70
2022/10/21 10:12:54;;;;;;;;;;;20.50;68.40;;;;;;5062721;28;987;-71
2022/10/21 10:15:24;;;;;;;;;;;20.40;68.20;;;;;;5059584;28;1322;-70
2022/10/21 10:17:50;;;;;;;;;;;20.50;68.40;;;;;;5051041;28;1632;-71
2022/10/21 10:20:17;;;;;;;;;;;20.50;68.40;;;;;;5055563;28;860;-71
2022/10/21 10:22:43;;;;;;;;;;;20.50;68.40;;;;;;5057764;28;1065;-72
2022/10/21 10:25:11;;;;;;;;;;;20.40;68.40;;;;;;5059941;28;902;-71
2022/10/21 10:27:55;;;;;;;;;;;20.50;68.40;;;;;;5056006;28;1901;-70
2022/10/21 10:30:20;;;;;;;;;;;20.40;68.40;;;;;;5056606;28;823;-70
2022/10/21 10:32:46;;;;;;;;;;;20.40;68.30;;;;;;5055366;28;1073;-68
2022/10/21 10:35:28;;;;;;;;;;;20.50;68.40;;;;;;5059683;28;1101;-69
2022/10/21 10:37:53;;;;;;;;;;;20.50;68.50;;;;;;5057802;28;1248;-69
2022/10/21 10:40:24;;;;;;;;;;;20.40;68.50;;;;;;5060096;28;839;-73
2022/10/21 10:42:50;;;;;;;;;;;20.50;68.50;;;;;;5059168;28;891;-69
2022/10/21 10:45:18;;;;;;;;;;;20.50;68.60;;;;;;5054990;28;975;-70
2022/10/21 10:47:48;;;;;;;;;;;20.40;68.50;;;;;;5055881;28;1910;-69
2022/10/21 10:50:33;;;;;;;;;;;20.50;68.60;;;;;;5056913;28;856;-70
2022/10/21 10:53:17;;;;;;;;;;;20.50;68.60;;;;;;5043017;28;1596;-72
2022/10/21 10:55:42;;;;;;;;;;;20.40;68.50;;;;;;5058185;28;1362;-71
2022/10/21 10:58:08;;;;;;;;;;;20.40;68.60;;;;;;5054513;28;1594;-69
2022/10/21 11:00:35;;;;;;;;;;;20.50;68.60;;;;;;5055360;28;907;-69
2022/10/21 11:03:08;;;;;;;;;;;20.40;68.60;;;;;;5055869;28;1030;-69
2022/10/21 11:05:37;;;;;;;;;;;20.50;68.60;;;;;;5053889;28;1902;-69
2022/10/21 11:08:16;;;;;;;;;;;20.40;68.70;;;;;;5059853;28;1589;-69
2022/10/21 11:10:43;;;;;;;;;;;20.40;68.70;;;;;;5057417;28;804;-70
2022/10/21 11:13:10;;;;;;;;;;;20.40;68.60;;;;;;5057287;28;880;-70
2022/10/21 11:15:41;;;;;;;;;;;20.40;68.60;;;;;;5058729;28;949;-69
2022/10/21 11:18:15;;;;;;;;;;;20.40;68.70;;;;;;5058974;28;1291;-70
2022/10/21 11:20:44;;;;;;;;;;;20.40;68.70;;;;;;5059139;28;942;-70
2022/10/21 11:23:13;;;;;;;;;;;20.40;68.70;;;;;;5057870;28;1038;-69
2022/10/21 11:25:41;;;;;;;;;;;20.40;68.70;;;;;;5057888;28;1973;-71
2022/10/21 11:28:12;;;;;;;;;;;20.40;68.70;;;;;;5056528;28;1723;-71
2022/10/21 11:30:54;;;;;;;;;;;20.40;68.70;;;;;;5059305;28;906;-70
2022/10/21 11:33:28;;;;;;;;;;;20.40;68.80;;;;;;5062474;28;1386;-70
2022/10/21 11:35:59;;;;;;;;;;;20.40;68.70;;;;;;5057592;28;1358;-69
2022/10/21 11:38:28;;;;;;;;;;;20.40;68.80;;;;;;5057353;28;877;-69
2022/10/21 11:41:09;;;;;;;;;;;20.40;68.80;;;;;;5057698;28;897;-70
2022/10/21 11:43:53;;;;;;;;;;;20.40;68.80;;;;;;5058277;28;1010;-70
2022/10/21 11:46:25;;;;;;;;;;;20.40;68.90;;;;;;5057797;28;1906;-69
2022/10/21 11:49:02;;;;;;;;;;;20.40;68.80;;;;;;5058310;28;902;-70
2022/10/21 11:51:48;;;;;;;;;;;20.40;68.90;;;;;;5058811;28;997;-69
2022/10/21 11:54:14;;;;;;;;;;;20.40;68.90;;;;;;5057880;28;788;-69
2022/10/21 11:56:51;;;;;;;;;;;20.40;68.90;;;;;;5062619;28;1229;-70
2022/10/21 11:59:35;;;;;;;;;;;20.40;68.90;;;;;;5053334;28;997;-69
2022/10/21 12:02:03;;;;;;;;;;;20.40;68.90;;;;;;5058395;28;1046;-69
2022/10/21 12:04:32;;;;;;;;;;;20.40;68.90;;;;;;5058505;28;1065;-70
2022/10/21 12:07:01;;;;;;;;;;;20.40;68.90;;;;;;5057332;28;1919;-71
2022/10/21 12:09:37;;;;;;;;;;;20.40;68.90;;;;;;5054360;28;899;-69
2022/10/21 12:12:09;;;;;;;;;;;20.40;69.40;;;;;;5052695;28;1259;-70
2022/10/21 12:14:36;;;;;;;;;;;20.40;68.90;;;;;;5060940;28;840;-70
2022/10/21 12:17:03;;;;;;;;;;;20.40;69.00;;;;;;5056655;28;1318;-69
2022/10/21 12:19:29;;;;;;;;;;;20.40;68.90;;;;;;5060984;28;1088;-70
2022/10/21 12:21:54;;;;;;;;;;;20.40;68.90;;;;;;5061975;28;1049;-70
2022/10/21 12:24:20;;;;;;;;;;;20.40;68.90;;;;;;5062125;28;927;-69
2022/10/21 12:26:53;;;;;;;;;;;20.40;69.00;;;;;;5061077;28;1972;-69
2022/10/21 12:29:19;;;;;;;;;;;20.40;69.10;;;;;;5064359;28;856;-70
2022/10/21 12:32:03;;;;;;;;;;;20.40;69.00;;;;;;5062409;28;1493;-70
2022/10/21 12:34:28;;;;;;;;;;;20.40;69.00;;;;;;5061075;28;1073;-70
2022/10/21 12:36:54;;;;;;;;;;;20.40;69.00;;;;;;5062960;28;1338;-70
2022/10/21 12:39:31;;;;;;;;;;;20.40;69.00;;;;;;5062013;28;1081;-70
2022/10/21 12:42:04;;;;;;;;;;;20.40;69.10;;;;;;5061100;28;895;-71
2022/10/21 12:44:29;;;;;;;;;;;20.40;69.00;;;;;;5060206;28;888;-70
2022/10/21 12:46:55;;;;;;;;;;;20.40;69.00;;;;;;5061996;28;1939;-71
2022/10/21 12:49:22;;;;;;;;;;;20.40;69.10;;;;;;5058126;28;975;-70
2022/10/21 12:52:10;;;;;;;;;;;20.40;69.10;;;;;;5061737;28;1241;-69
2022/10/21 12:54:38;;;;;;;;;;;20.40;69.10;;;;;;5056715;28;1020;-69
2022/10/21 12:57:05;;;;;;;;;;;20.40;69.20;;;;;;5060844;28;1362;-70
2022/10/21 12:59:40;;;;;;;;;;;20.40;69.10;;;;;;5059298;28;835;-70
2022/10/21 13:02:06;;;;;;;;;;;20.40;69.20;;;;;;5056960;28;800;-69
2022/10/21 13:04:32;;;;;;;;;;;20.40;69.10;;;;;;5058476;28;1345;-71
2022/10/21 13:06:58;;;;;;;;;;;20.40;69.20;;;;;;5061265;28;1959;-70
2022/10/21 13:09:29;;;;;;;;;;;20.40;69.20;;;;;;5059221;28;868;-70
2022/10/21 13:12:01;;;;;;;;;;;20.40;69.20;;;;;;5058782;28;841;-69
2022/10/21 13:14:28;;;;;;;;;;;20.40;69.20;;;;;;5056695;28;883;-69
2022/10/21 13:17:01;;;;;;;;;;;20.40;69.20;;;;;;5062069;28;1365;-70
2022/10/21 13:19:33;;;;;;;;;;;20.40;69.20;;;;;;5060602;28;1402;-70
2022/10/21 13:22:02;;;;;;;;;;;20.40;69.30;;;;;;5060752;28;887;-68
2022/10/21 13:24:31;;;;;;;;;;;20.30;69.20;;;;;;5059729;28;1340;-70
2022/10/21 13:27:00;;;;;;;;;;;20.40;69.30;;;;;;5060971;28;1960;-70
2022/10/21 13:29:27;;;;;;;;;;;20.40;69.20;;;;;;5057811;28;900;-69
2022/10/21 13:32:12;;;;;;;;;;;20.40;69.20;;;;;;5059204;28;1441;-70
2022/10/21 13:34:37;;;;;;;;;;;20.40;69.30;;;;;;5060440;28;955;-70
2022/10/21 13:37:10;;;;;;;;;;;20.40;69.20;;;;;;5062488;28;1271;-69
2022/10/21 13:39:36;;;;;;;;;;;20.40;69.30;;;;;;5058950;28;863;-70
2022/10/21 13:42:05;;;;;;;;;;;20.40;69.30;;;;;;5062734;28;910;-70
2022/10/21 13:44:35;;;;;;;;;;;20.30;69.30;;;;;;5060924;28;871;-69
2022/10/21 13:47:24;;;;;;;;;;;20.30;69.30;;;;;;5060200;28;1914;-70
2022/10/21 13:49:51;;;;;;;;;;;20.30;69.30;;;;;;5062784;28;879;-70
2022/10/21 13:52:16;;;;;;;;;;;20.30;69.30;;;;;;5062012;28;836;-69
2022/10/21 13:54:42;;;;;;;;;;;20.30;69.30;;;;;;5059819;28;1018;-70
2022/10/21 13:57:07;;;;;;;;;;;20.40;69.60;;;;;;5060620;28;1287;-70
2022/10/21 13:59:33;;;;;;;;;;;20.30;69.50;;;;;;5060903;28;895;-70
2022/10/21 14:01:59;;;;;;;;;;;20.30;69.50;;;;;;5055520;28;875;-70
2022/10/21 14:04:28;;;;;;;;;;;20.30;69.40;;;;;;5060094;28;895;-71
2022/10/21 14:06:56;;;;;;;;;;;20.30;69.40;;;;;;5060792;28;1898;-70
2022/10/21 14:09:38;;;;;;;;;;;20.30;69.50;;;;;;5062208;28;824;-70
2022/10/21 14:12:04;;;;;;;;;;;20.30;69.50;;;;;;5059738;28;1022;-71
2022/10/21 14:14:30;;;;;;;;;;;20.30;69.50;;;;;;5059545;28;982;-71
2022/10/21 14:17:06;;;;;;;;;;;20.30;69.60;;;;;;5062493;28;2365;-71
2022/10/21 14:19:36;;;;;;;;;;;20.30;69.60;;;;;;5063133;28;1327;-72
2022/10/21 14:22:02;;;;;;;;;;;20.30;69.60;;;;;;5062962;28;1231;-71
2022/10/21 14:24:27;;;;;;;;;;;20.30;69.70;;;;;;5058399;28;894;-70
2022/10/21 14:26:53;;;;;;;;;;;20.30;69.60;;;;;;5057721;28;1898;-70
2022/10/21 14:29:19;;;;;;;;;;;20.20;69.60;;;;;;5059958;28;1072;-71
2022/10/21 14:31:44;;;;;;;;;;;20.20;69.60;;;;;;5059890;28;1361;-71
2022/10/21 14:34:29;;;;;;;;;;;20.20;69.60;;;;;;5058103;28;1417;-71
2022/10/21 14:37:02;;;;;;;;;;;20.20;69.60;;;;;;5060192;28;1256;-70
2022/10/21 14:39:27;;;;;;;;;;;20.20;69.60;;;;;;5060308;28;781;-72
2022/10/21 14:41:54;;;;;;;;;;;20.20;69.60;;;;;;5060536;28;1861;-72